Flight Track Log - Related Links

Times and Time Zones

All times are in EDT time to prevent confusion due to time zone crossing. See the SKW4511 flight status page for this flight to view local times or setup timezone preferences in your user account.

Time Position Orientation Groundspeed Altitude Reporting Facility
EDT Latitude Longitude Course Direction KTS MPH feet Rate Location/Type
Thu 09:43:55 AM 46.8950 -114.0619 200° South 176 203 4,400  Level Salt Lake Center
Thu 09:44:56 AM 46.8386 -114.0669 183° South 204 235 6,900 2,213 Climbing Salt Lake Center
Thu 09:45:57 AM 46.7761 -114.0642 178° South 223 257 8,900 1,869 Climbing Salt Lake Center
Thu 09:46:00 AM 46.6166 -113.9761 180° South  Level Estimated
Thu 09:46:58 AM 46.6981 -114.0683 182° South 275 316 10,700  Level Salt Lake Center
Thu 09:47:00 AM 46.5167 -113.9382 180° South  Level Estimated
Thu 09:47:59 AM 46.6164 -114.0675 180° South 291 335 13,000  Level Salt Lake Center
Thu 09:48:00 AM 46.4167 -113.9005 180° South  Level Estimated
Thu 09:49:00 AM 46.3196 -113.9514 200° South  Level FlightAware Approximate
Thu 09:49:00 AM 46.5244 -114.0678 180° South 306 352 15,500  Level Salt Lake Center
Thu 09:50:01 AM 46.4353 -114.0694 181° South 320 368 16,800 1,171 Climbing Salt Lake Center
Thu 09:51:03 AM 46.3447 -114.0697 180° South 336 387 17,900 1,171 Climbing Salt Lake Center
Thu 09:52:04 AM 46.2458 -114.0725 181° South 352 405 19,200 1,230 Climbing Salt Lake Center
Thu 09:53:05 AM 46.1461 -114.0722 180° South 361 415 20,400 984 Climbing Salt Lake Center
Thu 09:54:06 AM 46.0433 -114.0731 180° South 367 422 21,200 836 Climbing Salt Lake Center
Thu 09:55:07 AM 45.9367 -114.0736 180° South 378 435 22,100 976 Climbing Salt Lake Center
Thu 09:56:09 AM 45.8292 -114.0753 181° South 386 444 23,200 1,073 Climbing Salt Lake Center
Thu 09:57:10 AM 45.7192 -114.0756 180° South 394 453 24,300 934 Climbing Salt Lake Center
Thu 09:58:11 AM 45.5875 -114.0772 181° South 408 470 25,100 787 Climbing Salt Lake Center
Thu 09:59:12 AM 45.4681 -114.0789 181° South 424 488 25,900 738 Climbing Salt Lake Center
Thu 10:00:13 AM 45.3461 -114.0808 181° South 435 501 26,600 732 Climbing Salt Lake Center
Thu 10:01:15 AM 45.2197 -114.0817 180° South 448 516 27,400 683 Climbing Salt Lake Center
Thu 10:02:16 AM 45.0914 -114.0844 181° South 456 525 28,000 639 Climbing Salt Lake Center
Thu 10:03:17 AM 44.9639 -114.0442 167° South 481 554 28,700 689 Climbing Salt Lake Center
Thu 10:04:18 AM 44.8256 -113.9497 154° Southeast 477 549 29,400 634 Climbing Salt Lake Center
Thu 10:05:20 AM 44.7114 -113.8706 154° Southeast 478 550 30,000 537 Climbing Salt Lake Center
Thu 10:06:21 AM 44.5967 -113.7917 154° Southeast 480 552 30,500 492 Climbing Salt Lake Center
Thu 10:07:22 AM 44.4606 -113.6997 154° Southeast 483 556 31,000 246 Climbing Salt Lake Center
Thu 10:08:23 AM 44.3414 -113.6194 154° Southeast 492 566 31,000  Level Salt Lake Center
Thu 10:09:24 AM 44.2003 -113.5228 154° Southeast 502 578 31,000  Level Salt Lake Center
Thu 10:10:26 AM 44.0717 -113.4381 155° Southeast 521 600 31,000  Level Salt Lake Center
Thu 10:11:27 AM 43.9431 -113.3525 154° Southeast 534 615 31,000  Level Salt Lake Center
Thu 10:12:28 AM 43.7925 -113.2536 155° Southeast 538 619 31,000  Level Salt Lake Center
Thu 10:13:30 AM 43.6625 -113.1681 155° Southeast 541 623 31,000  Level Salt Lake Center
Thu 10:14:31 AM 43.5100 -113.0664 154° Southeast 545 627 31,000  Level Salt Lake Center
Thu 10:15:32 AM 43.3783 -112.9817 155° Southeast 548 631 31,000  Level Salt Lake Center
Thu 10:16:34 AM 43.2458 -112.8961 155° Southeast 550 633 31,000 -341 Level Salt Lake Center
Thu 10:17:35 AM 43.0911 -112.7958 155° Southeast 552 635 30,300 -492 Descending Salt Lake Center
Thu 10:18:36 AM 42.9536 -112.7064 155° Southeast 567 652 30,000 -146 Descending Salt Lake Center
Thu 10:19:38 AM 42.7914 -112.6275 160° South 558 642 30,000  Level Salt Lake Center
Thu 10:20:39 AM 42.6611 -112.5869 167° South 554 638 30,000  Level Salt Lake Center
Thu 10:21:40 AM 42.4892 -112.4992 159° South 551 634 30,000  Level Salt Lake Center
Thu 10:22:42 AM 42.3469 -112.4283 160° South 547 629 30,000 -390 Level Salt Lake Center
Thu 10:23:43 AM 42.2053 -112.3589 160° South 544 626 29,200 -2,508 Descending Salt Lake Center
Thu 10:24:44 AM 42.0717 -112.2953 161° South 517 595 24,900 -4,195 Descending Salt Lake Center
Thu 10:25:46 AM 41.9442 -112.2311 159° South 494 568 20,600 -3,805 Descending Salt Lake Center
Thu 10:26:47 AM 41.8211 -112.1731 161° South 479 551 17,100 -2,919 Descending Salt Lake Center
Thu 10:27:37 AM 41.7219 -112.1147 156° South 432 497 15,200 -1,935 Descending Salt Lake Center
Thu 10:27:49 AM 41.7100 -112.1183 193° South 431 496 15,100 -400 Descending Salt Lake Center
Thu 10:28:07 AM 41.6678 -112.0903 154° Southeast 408 470 15,000 -393 Descending Salt Lake Center
Thu 10:28:50 AM 41.6122 -112.0728 167° South 371 427 14,700 -1,377 Descending Salt Lake Center
Thu 10:29:08 AM 41.5728 -112.0453 152° Southeast 361 415 13,600 -1,742 Descending Salt Lake Center
Thu 10:29:52 AM 41.5211 -112.0267 165° South 351 404 12,900 -1,279 Descending Salt Lake Center
Thu 10:30:09 AM 41.4853 -112.0039 155° Southeast 340 391 12,300 -885 Descending Salt Lake Center
Thu 10:30:53 AM 41.4208 -111.9775 163° South 321 369 12,000 -295 Descending Salt Lake Center
Thu 10:31:10 AM 41.4019 -111.9636 151° Southeast 319 367 12,000  Level Salt Lake Center
Thu 10:31:55 AM 41.3333 -111.9542 174° South 325 374 12,000  Level Salt Lake Center
Thu 10:32:11 AM 41.3136 -111.9511 173° South 323 372 12,000 -590 Level Salt Lake Center
Thu 10:32:56 AM 41.2467 -111.9558 183° South 313 360 11,400 -900 Descending Salt Lake Center
Thu 10:33:11 AM 41.2194 -111.9550 179° South 310 357 11,100 -387 Descending Salt Lake Center
Thu 10:33:58 AM 41.1636 -111.9606 184° South 304 350 11,000 -98 Descending Salt Lake Center
Thu 10:34:12 AM 41.1392 -111.9625 183° South 297 342 11,000 -787 Level Salt Lake Center
Thu 10:34:59 AM 41.0850 -111.9647 182° South 290 334 10,200 -1,377 Descending Salt Lake Center
Thu 10:35:13 AM 41.0572 -111.9619 176° South 291 335 9,600 -1,258 Descending Salt Lake Center
Thu 10:36:01 AM 41.0092 -111.9625 180° South 279 321 8,900 -984 Descending Salt Lake Center
Thu 10:36:14 AM 40.9825 -111.9647 184° South 258 297 8,600 -787 Descending Salt Lake Center
Thu 10:37:02 AM 40.9347 -111.9619 177° South 225 259 8,100 -885 Descending Salt Lake Center
Thu 10:37:15 AM 40.9239 -111.9622 181° South 209 241 7,700 -1,742 Descending Salt Lake Center
Thu 10:38:04 AM 40.8808 -111.9622 180° South 200 230 6,300 -1,700 Descending Salt Lake Center
Thu 10:38:15 AM 40.8703 -111.9633 185° South 198 228 6,000 -1,377 Descending Salt Lake Center
Thu 10:39:05 AM 40.8322 -111.9622 179° South 176 203 4,900 -1,279 Descending Salt Lake Center
Thu 10:39:16 AM 40.8206 -111.9633 184° South 158 182 4,700 -677 Descending Salt Lake Center
Thu 10:40:07 AM 40.7914 -111.9622 178° South 151 174 4,200 -588 Descending Salt Lake Center

Login

Don't have an account? Register now (free) for customized features, flight alerts, and more!